Terminal Aerodrome Forecast
Issued by NWS Corpus Christi, TX

Home | Current Version | Previous Version | Text Only | Print | Product List | Glossary On
Versions: 1 2 3 4 5 6 7 8 9 10 11 12
000
FTUS44 KCRP 292329
TAFVCT
TAF
KVCT 292329Z 3000/3024 15005KT P6SM FEW050 SCT250
     FM300600 VRB03KT P6SM SCT020
      TEMPO 3010/3014 BKN020
     FM301400 VRB04KT P6SM BKN035
     FM302000 15010KT P6SM FEW050=

USA.gov is the U.S. government's official web portal to all federal, state and local government web resources and services.